Arnold, Kansas
Current Conditions -  °F | °C
As of 11:35 AM on Thursday 30 Oct 2014 (Local Time) from KHYS Reporting Station
Clear Clear  
Wind Chill: 63°   Ceiling: Unl
Heat Index: 63°   Visibility: 10mi
Dew Point: 36°   Wind: 14mph
Humidity: 37%   Direction: 330°NNW
Pressure: 30.23"   Gusts: NA
Location:  38.64°N, 100.05°W
Report Text: KHYS 301635Z AUTO 33012KT 10SM CLR 17/02 A3023 RMK AO1
Loading
Personal Weather Stations






























Interactive Weather Map
Tropical Storm Tracking
New forecast layout! Learn more

10-Day Weather Forecast

Advertisements
Track Severe Weather on mobile